createdAt,value
2018-11-06T00:01:39.875Z,100943.62
2018-11-06T00:04:08.866Z,100938.11
2018-11-06T00:06:37.247Z,100939.03
2018-11-06T00:09:07.735Z,100939.95
2018-11-06T00:11:36.091Z,100943.89
2018-11-06T00:14:04.859Z,100947.36
2018-11-06T00:16:33.239Z,100946.92
2018-11-06T00:19:01.639Z,100949.05
2018-11-06T00:21:30.014Z,100941.98
2018-11-06T00:23:58.412Z,100939.75
2018-11-06T00:26:26.791Z,100940.98
2018-11-06T00:28:55.200Z,100941.41
2018-11-06T00:31:23.578Z,100934.53
2018-11-06T00:33:51.975Z,100937.59
2018-11-06T00:36:20.519Z,100922.09
2018-11-06T00:38:48.919Z,100926.41
2018-11-06T00:41:17.319Z,100924.30
2018-11-06T00:43:45.714Z,100910.97
2018-11-06T00:46:14.086Z,100920.08
2018-11-06T00:48:42.482Z,100916.70
2018-11-06T00:51:10.863Z,100926.19
2018-11-06T00:53:39.255Z,100927.09
2018-11-06T00:56:07.627Z,100931.33
2018-11-06T00:58:36.023Z,100928.67
2018-11-06T01:01:04.435Z,100931.58
2018-11-06T01:03:38.199Z,100935.67
2018-11-06T01:06:06.580Z,100929.42
2018-11-06T01:08:34.979Z,100937.33
2018-11-06T01:11:03.363Z,100932.31
2018-11-06T01:13:31.767Z,100929.14
2018-11-06T01:16:00.142Z,100926.88
2018-11-06T01:18:28.563Z,100916.41
2018-11-06T01:20:56.931Z,100924.13
2018-11-06T01:23:25.340Z,100930.16
2018-11-06T01:25:53.747Z,100926.34
2018-11-06T01:28:22.122Z,100926.37
2018-11-06T01:30:50.535Z,100929.45
2018-11-06T01:33:18.915Z,100923.05
2018-11-06T01:35:47.316Z,100920.12
2018-11-06T01:38:15.687Z,100918.91
2018-11-06T01:40:44.106Z,100919.92
2018-11-06T01:43:12.483Z,100915.23
2018-11-06T01:45:40.881Z,100919.13
2018-11-06T01:48:09.254Z,100916.19
2018-11-06T01:50:37.655Z,100912.36
2018-11-06T01:53:06.071Z,100911.07
2018-11-06T01:55:34.475Z,100919.74
2018-11-06T01:58:02.851Z,100914.16
2018-11-06T02:00:31.251Z,100913.70
2018-11-06T02:02:59.632Z,100911.99
2018-11-06T02:05:28.034Z,100920.19
2018-11-06T02:07:56.415Z,100907.64
2018-11-06T02:10:24.818Z,100911.52
2018-11-06T02:12:53.196Z,100907.64
2018-11-06T02:15:21.604Z,100908.05
2018-11-06T02:17:49.983Z,100907.14
2018-11-06T02:20:18.386Z,100898.47
2018-11-06T02:22:47.190Z,100899.31
2018-11-06T02:25:15.798Z,100901.03
2018-11-06T02:27:44.183Z,100892.30
2018-11-06T02:30:14.208Z,100903.03
2018-11-06T02:32:43.373Z,100899.52
2018-11-06T02:35:11.791Z,100901.18
2018-11-06T02:37:40.163Z,100900.26
2018-11-06T02:40:10.274Z,100894.17
2018-11-06T02:42:38.678Z,100895.45
2018-11-06T02:45:07.651Z,100898.94
2018-11-06T02:47:36.107Z,100891.20
2018-11-06T02:50:04.652Z,100893.36
2018-11-06T02:52:33.038Z,100889.48
2018-11-06T02:55:01.441Z,100887.82
2018-11-06T02:57:29.814Z,100892.98
2018-11-06T02:59:58.215Z,100891.70
2018-11-06T03:02:26.602Z,100899.95
2018-11-06T03:04:55.004Z,100910.78
2018-11-06T03:07:23.391Z,100917.73
2018-11-06T03:09:51.806Z,100918.63
2018-11-06T03:12:20.174Z,100913.09
2018-11-06T03:14:48.600Z,100909.22
2018-11-06T03:17:16.978Z,100912.73
2018-11-06T03:19:45.347Z,100904.11
2018-11-06T03:22:13.742Z,100908.43
2018-11-06T03:24:42.123Z,100909.72
2018-11-06T03:27:10.611Z,100916.23
2018-11-06T03:29:38.925Z,100915.00
2018-11-06T03:32:07.338Z,100920.16
2018-11-06T03:34:35.723Z,100918.45
2018-11-06T03:37:04.136Z,100917.61
2018-11-06T03:39:32.531Z,100924.48
2018-11-06T03:42:00.966Z,100927.94
2018-11-06T03:44:29.338Z,100937.85
2018-11-06T03:46:57.734Z,100942.15
2018-11-06T03:49:26.112Z,100937.34
2018-11-06T03:51:54.526Z,100940.36
2018-11-06T03:54:22.916Z,100937.77
2018-11-06T03:56:51.318Z,100937.27
2018-11-06T03:59:20.038Z,100935.11
2018-11-06T04:01:48.442Z,100932.89
2018-11-06T04:04:16.810Z,100938.48
2018-11-06T04:06:45.213Z,100931.55
2018-11-06T04:09:13.967Z,100934.19
2018-11-06T04:11:42.674Z,100931.66
2018-11-06T04:14:11.546Z,100929.94
2018-11-06T04:16:40.354Z,100927.36
2018-11-06T04:19:09.228Z,100925.70
2018-11-06T04:21:38.763Z,100928.28
2018-11-06T04:24:10.809Z,100926.99
2018-11-06T04:26:39.610Z,100928.73
2018-11-06T04:29:08.791Z,100928.73
2018-11-06T04:31:37.808Z,100931.29
2018-11-06T04:34:06.472Z,100930.00
2018-11-06T04:36:34.874Z,100937.69
2018-11-06T04:39:03.643Z,100938.93
2018-11-06T04:41:32.061Z,100942.36
2018-11-06T04:44:00.443Z,100934.12
2018-11-06T04:46:28.851Z,100934.11
2018-11-06T04:48:57.222Z,100940.50
2018-11-06T04:51:25.622Z,100938.77
2018-11-06T04:53:58.115Z,100941.30
2018-11-06T04:56:26.823Z,100936.11
2018-11-06T04:58:55.221Z,100932.59
2018-11-06T05:01:23.999Z,100930.83
2018-11-06T05:03:52.369Z,100937.68
2018-11-06T05:06:20.770Z,100938.91
2018-11-06T05:08:49.142Z,100940.27
2018-11-06T05:11:17.542Z,100935.91
2018-11-06T05:13:45.933Z,100933.69
2018-11-06T05:16:14.323Z,100936.27
2018-11-06T05:18:42.732Z,100934.59
2018-11-06T05:21:11.106Z,100926.84
2018-11-06T05:23:39.511Z,100925.55
2018-11-06T05:26:07.896Z,100929.01
2018-11-06T05:28:36.337Z,100934.59
2018-11-06T05:31:04.870Z,100936.75
2018-11-06T05:33:33.267Z,100939.76
2018-11-06T05:36:01.637Z,100943.63
2018-11-06T05:38:30.030Z,100944.44
2018-11-06T05:41:02.645Z,100941.41
2018-11-06T05:43:31.038Z,100952.61
2018-11-06T05:45:59.497Z,100949.58
2018-11-06T05:48:27.898Z,100942.70
2018-11-06T05:50:56.303Z,100946.52
2018-11-06T05:53:24.689Z,100950.81
2018-11-06T05:55:53.066Z,100954.63
2018-11-06T05:58:21.464Z,100947.25
2018-11-06T06:00:49.835Z,100949.83
2018-11-06T06:03:18.243Z,100958.87
2018-11-06T06:05:46.623Z,100952.39
2018-11-06T06:08:15.024Z,100954.05
2018-11-06T06:10:43.395Z,100971.25
2018-11-06T06:13:11.790Z,100966.50
2018-11-06T06:15:40.170Z,100967.80
2018-11-06T06:18:08.570Z,100965.22
2018-11-06T06:20:36.946Z,100970.38
2018-11-06T06:23:05.874Z,100970.83
2018-11-06T06:25:34.288Z,100974.76
2018-11-06T06:28:02.678Z,100981.23
2018-11-06T06:30:31.062Z,100983.88
2018-11-06T06:32:59.467Z,100976.58
2018-11-06T06:35:27.877Z,100985.73
2018-11-06T06:37:56.275Z,100977.56
2018-11-06T06:40:24.654Z,100987.11
2018-11-06T06:42:53.068Z,100985.91
2018-11-06T06:45:21.442Z,100996.74
2018-11-06T06:47:49.838Z,100998.48
2018-11-06T06:50:19.325Z,101004.63
2018-11-06T06:52:48.133Z,101008.59
2018-11-06T06:55:17.158Z,101013.84
2018-11-06T06:57:46.437Z,101017.34
2018-11-06T07:00:16.422Z,101012.69
2018-11-06T07:02:44.843Z,101018.36
2018-11-06T07:05:14.450Z,101014.56
2018-11-06T07:07:43.519Z,101019.01
2018-11-06T07:10:13.659Z,101020.38
2018-11-06T07:12:43.192Z,101022.23
2018-11-06T07:15:16.888Z,101027.06
2018-11-06T07:17:46.234Z,101028.91
2018-11-06T07:20:19.018Z,101023.45
2018-11-06T07:22:47.410Z,101025.81
2018-11-06T07:25:16.013Z,101031.17
2018-11-06T07:27:45.607Z,101031.80
2018-11-06T07:30:15.801Z,101035.89
2018-11-06T07:32:46.249Z,101033.56
2018-11-06T07:35:15.420Z,101036.86
2018-11-06T07:37:44.147Z,101033.67
2018-11-06T07:40:13.770Z,101037.02
2018-11-06T07:42:42.539Z,101036.86
2018-11-06T07:45:14.109Z,101037.48
2018-11-06T07:47:42.677Z,101037.28
2018-11-06T07:50:11.816Z,101043.08
2018-11-06T07:52:40.454Z,101041.06
2018-11-06T07:55:11.148Z,101047.27
2018-11-06T07:57:39.523Z,101043.55
2018-11-06T08:00:13.765Z,101039.80
2018-11-06T08:02:42.316Z,101037.83
2018-11-06T08:05:10.947Z,101037.13
2018-11-06T08:07:39.319Z,101044.68
2018-11-06T08:10:08.421Z,101046.16
2018-11-06T08:12:36.790Z,101042.91
2018-11-06T08:15:05.639Z,101043.52
2018-11-06T08:17:33.973Z,101045.84
2018-11-06T08:20:02.452Z,101040.06
2018-11-06T08:22:30.828Z,101045.42
2018-11-06T08:24:59.226Z,101047.83
2018-11-06T08:27:27.613Z,101044.13
2018-11-06T08:29:56.041Z,101044.37
2018-11-06T08:32:24.725Z,101046.33
2018-11-06T08:34:52.838Z,101043.53
2018-11-06T08:37:21.213Z,101044.15
2018-11-06T08:39:49.610Z,101044.75
2018-11-06T08:42:18.048Z,101045.78
2018-11-06T08:44:46.443Z,101055.90
2018-11-06T08:47:14.822Z,101049.13
2018-11-06T08:49:43.217Z,101056.62
2018-11-06T08:52:11.598Z,101061.50
2018-11-06T08:54:40.091Z,101058.98
2018-11-06T08:57:08.406Z,101060.42
2018-11-06T08:59:36.810Z,101055.73
2018-11-06T09:02:05.497Z,101063.67
2018-11-06T09:04:33.890Z,101064.22
2018-11-06T09:07:02.270Z,101070.35
2018-11-06T09:09:30.671Z,101067.82
2018-11-06T09:11:59.048Z,101080.95
2018-11-06T09:14:27.460Z,101078.42
2018-11-06T09:16:55.881Z,101076.76
2018-11-06T09:19:24.294Z,101074.25
2018-11-06T09:21:52.671Z,101073.48
2018-11-06T09:24:21.042Z,101070.10
2018-11-06T09:26:49.454Z,101069.73
2018-11-06T09:29:17.830Z,101071.11
2018-11-06T09:31:46.225Z,101072.94
2018-11-06T09:34:14.598Z,101071.28
2018-11-06T09:36:42.996Z,101063.53
2018-11-06T09:39:12.051Z,101074.45
2018-11-06T09:41:40.867Z,101073.23
2018-11-06T09:44:09.257Z,101071.95
2018-11-06T09:46:38.239Z,101069.86
2018-11-06T09:49:07.003Z,101072.05
2018-11-06T09:51:35.438Z,101074.27
2018-11-06T09:54:03.826Z,101069.55
2018-11-06T09:56:32.238Z,101063.48
2018-11-06T09:59:00.614Z,101055.72
2018-11-06T10:01:29.022Z,101063.59
2018-11-06T10:03:57.398Z,101054.51
2018-11-06T10:06:25.890Z,101050.19
2018-11-06T10:08:54.230Z,101051.95
2018-11-06T10:11:22.633Z,101052.45
2018-11-06T10:13:51.019Z,101045.11
2018-11-06T10:16:19.418Z,101044.70
2018-11-06T10:18:47.790Z,101043.87
2018-11-06T10:21:16.229Z,101041.73
2018-11-06T10:23:44.731Z,101047.42
2018-11-06T10:26:13.129Z,101043.54
2018-11-06T10:28:41.510Z,101042.27
2018-11-06T10:31:09.916Z,101042.27
2018-11-06T10:33:38.291Z,101035.34
2018-11-06T10:36:06.707Z,101041.48
2018-11-06T10:38:35.089Z,101032.35
2018-11-06T10:41:03.515Z,101029.79
2018-11-06T10:43:31.886Z,101031.98
2018-11-06T10:46:00.306Z,101035.49
2018-11-06T10:48:28.700Z,101029.44
2018-11-06T10:50:57.078Z,101025.97
2018-11-06T10:53:25.483Z,101029.89
2018-11-06T10:55:53.870Z,101023.81
2018-11-06T10:58:22.263Z,101029.05
2018-11-06T11:00:55.904Z,101023.42
2018-11-06T11:03:28.553Z,101020.42
2018-11-06T11:05:57.107Z,101014.77
2018-11-06T11:08:25.514Z,101017.81
2018-11-06T11:10:53.898Z,101010.86
2018-11-06T11:13:22.328Z,101011.31
2018-11-06T11:15:50.707Z,101010.45
2018-11-06T11:18:19.106Z,101004.36
2018-11-06T11:20:47.482Z,101007.88
2018-11-06T11:23:15.883Z,101008.73
2018-11-06T11:25:44.283Z,101005.25
2018-11-06T11:28:12.699Z,101005.28
2018-11-06T11:30:41.083Z,101005.27
2018-11-06T11:33:09.488Z,101011.36
2018-11-06T11:35:37.866Z,101013.53
2018-11-06T11:38:06.273Z,101017.04
2018-11-06T11:40:34.654Z,101015.73
2018-11-06T11:43:03.082Z,101015.70
2018-11-06T11:45:31.462Z,101014.41
2018-11-06T11:47:59.861Z,101009.17
2018-11-06T11:50:28.257Z,101013.09
2018-11-06T11:52:56.654Z,101010.03
2018-11-06T11:55:25.038Z,101010.48
2018-11-06T11:57:53.448Z,101005.23
2018-11-06T12:00:22.078Z,101000.89
2018-11-06T12:02:50.497Z,100998.70
2018-11-06T12:05:18.881Z,101009.59
2018-11-06T12:07:47.263Z,101004.33
2018-11-06T12:10:15.662Z,101002.18
2018-11-06T12:12:44.038Z,101005.68
2018-11-06T12:15:16.873Z,101003.49
2018-11-06T12:17:46.249Z,100996.06
2018-11-06T12:20:15.078Z,101002.17
2018-11-06T12:22:43.459Z,101005.22
2018-11-06T12:25:12.615Z,101003.47
2018-11-06T12:27:40.850Z,101002.17
2018-11-06T12:30:11.362Z,101008.69
2018-11-06T12:32:40.301Z,101013.04
2018-11-06T12:35:09.557Z,101011.73
2018-11-06T12:37:38.211Z,101010.86
2018-11-06T12:40:07.542Z,101012.14
2018-11-06T12:42:36.206Z,101016.53
2018-11-06T12:45:04.950Z,101010.41
2018-11-06T12:47:33.331Z,101011.72
2018-11-06T12:50:01.743Z,101010.84
2018-11-06T12:52:30.159Z,101017.36
2018-11-06T12:54:58.562Z,101016.05
2018-11-06T12:57:26.947Z,101013.88
2018-11-06T12:59:55.347Z,101013.00
2018-11-06T13:02:23.737Z,101013.44
2018-11-06T13:04:52.137Z,101017.37
2018-11-06T13:07:20.523Z,101016.48
2018-11-06T13:09:48.967Z,101014.73
2018-11-06T13:12:17.347Z,101016.47
2018-11-06T13:14:45.754Z,101014.71
2018-11-06T13:17:14.990Z,101012.55
2018-11-06T13:19:43.322Z,101016.90
2018-11-06T13:22:11.738Z,101017.73
2018-11-06T13:24:40.166Z,101010.33
2018-11-06T13:27:08.555Z,101015.12
2018-11-06T13:29:36.966Z,101009.47
2018-11-06T13:32:05.583Z,101018.19
2018-11-06T13:34:33.962Z,101015.14
2018-11-06T13:37:02.363Z,101012.97
2018-11-06T13:39:30.750Z,101005.11
2018-11-06T13:41:59.192Z,101007.31
2018-11-06T13:44:27.999Z,101010.37
2018-11-06T13:46:56.117Z,101012.96
2018-11-06T13:49:24.499Z,101015.60
2018-11-06T13:51:52.968Z,101016.91
2018-11-06T13:54:21.352Z,101019.97
2018-11-06T13:56:49.753Z,101020.41
2018-11-06T13:59:18.133Z,101023.87
2018-11-06T14:01:46.530Z,101025.19
2018-11-06T14:04:14.939Z,101024.77
2018-11-06T14:06:43.338Z,101022.59
2018-11-06T14:09:12.060Z,101025.23
2018-11-06T14:11:40.763Z,101027.41
2018-11-06T14:14:09.423Z,101027.84
2018-11-06T14:16:38.030Z,101029.19
2018-11-06T14:19:06.622Z,101028.33
2018-11-06T14:21:35.203Z,101027.91
2018-11-06T14:24:03.774Z,101028.80
2018-11-06T14:26:32.228Z,101027.88
2018-11-06T14:29:00.607Z,101024.84
2018-11-06T14:31:29.230Z,101029.66
2018-11-06T14:33:57.610Z,101035.31
2018-11-06T14:36:26.053Z,101038.81
2018-11-06T14:38:54.438Z,101036.63
2018-11-06T14:41:22.854Z,101037.06
2018-11-06T14:43:51.254Z,101038.81
2018-11-06T14:46:19.655Z,101039.67
2018-11-06T14:48:48.253Z,101047.08
2018-11-06T14:51:16.465Z,101038.81
2018-11-06T14:53:44.917Z,101040.55
2018-11-06T14:56:13.296Z,101039.22
2018-11-06T14:58:41.695Z,101038.78
2018-11-06T15:01:10.082Z,101040.92
2018-11-06T15:03:38.487Z,101041.81
2018-11-06T15:06:07.140Z,101041.78
2018-11-06T15:08:35.546Z,101044.37
2018-11-06T15:11:03.930Z,101044.36
2018-11-06T15:13:32.350Z,101039.95
2018-11-06T15:16:00.736Z,101039.05
2018-11-06T15:18:29.223Z,101046.86
2018-11-06T15:20:57.635Z,101048.13
2018-11-06T15:23:26.035Z,101047.23
2018-11-06T15:25:54.426Z,101045.92
2018-11-06T15:28:22.862Z,101048.94
2018-11-06T15:30:51.225Z,101048.91
2018-11-06T15:33:19.642Z,101049.30
2018-11-06T15:35:48.025Z,101055.35
2018-11-06T15:38:16.455Z,101050.95
2018-11-06T15:40:44.897Z,101048.73
2018-11-06T15:43:13.286Z,101052.17
2018-11-06T15:45:41.670Z,101058.20
2018-11-06T15:48:10.076Z,101060.78
2018-11-06T15:50:38.455Z,101069.00
2018-11-06T15:53:06.914Z,101066.77
2018-11-06T15:55:35.294Z,101073.68
2018-11-06T15:58:03.679Z,101068.39
2018-11-06T16:00:32.094Z,101072.70
2018-11-06T16:03:00.495Z,101073.59
2018-11-06T16:05:28.898Z,101071.03
2018-11-06T16:07:57.283Z,101076.72
2018-11-06T16:10:25.696Z,101083.75
2018-11-06T16:12:54.077Z,101077.27
2018-11-06T16:15:22.585Z,101077.30
2018-11-06T16:17:50.925Z,101076.88
2018-11-06T16:20:20.496Z,101079.05
2018-11-06T16:22:48.917Z,101085.09
2018-11-06T16:25:18.279Z,101089.01
2018-11-06T16:27:47.043Z,101089.39
2018-11-06T16:30:17.705Z,101090.23
2018-11-06T16:32:46.960Z,101084.10
2018-11-06T16:35:16.602Z,101084.52
2018-11-06T16:37:45.474Z,101091.88
2018-11-06T16:40:14.495Z,101089.70
2018-11-06T16:42:43.765Z,101094.51
2018-11-06T16:45:14.462Z,101088.40
2018-11-06T16:47:43.815Z,101088.83
2018-11-06T16:50:13.547Z,101098.83
2018-11-06T16:52:42.301Z,101097.04
2018-11-06T16:55:11.222Z,101098.77
2018-11-06T16:57:40.810Z,101096.13
2018-11-06T17:00:11.240Z,101095.59
2018-11-06T17:02:40.020Z,101099.41
2018-11-06T17:05:09.310Z,101091.46
2018-11-06T17:07:37.709Z,101089.59
2018-11-06T17:10:07.718Z,101092.09
2018-11-06T17:12:36.123Z,101090.61
2018-11-06T17:15:04.726Z,101097.83
2018-11-06T17:17:33.130Z,101098.10
2018-11-06T17:20:01.506Z,101103.57
2018-11-06T17:22:29.906Z,101101.66
2018-11-06T17:24:58.322Z,101102.42
2018-11-06T17:27:26.718Z,101105.31
2018-11-06T17:29:55.153Z,101100.86
2018-11-06T17:32:23.584Z,101104.66
2018-11-06T17:34:51.974Z,101094.65
2018-11-06T17:37:20.382Z,101092.48
2018-11-06T17:39:48.761Z,101095.13
2018-11-06T17:42:17.203Z,101097.75
2018-11-06T17:44:45.610Z,101097.28
2018-11-06T17:47:14.018Z,101101.11
2018-11-06T17:49:42.405Z,101099.30
2018-11-06T17:52:10.801Z,101100.98
2018-11-06T17:54:39.169Z,101101.81
2018-11-06T17:57:07.590Z,101095.67
2018-11-06T17:59:36.016Z,101092.95
2018-11-06T18:02:04.486Z,101091.09
2018-11-06T18:04:33.013Z,101090.14
2018-11-06T18:07:01.300Z,101081.32
2018-11-06T18:09:29.675Z,101079.45
2018-11-06T18:11:58.117Z,101085.34
2018-11-06T18:14:26.514Z,101079.58
2018-11-06T18:16:54.905Z,101080.73
2018-11-06T18:19:23.399Z,101078.44
2018-11-06T18:21:51.906Z,101076.56
2018-11-06T18:24:20.282Z,101078.54
2018-11-06T18:26:49.231Z,101072.34
2018-11-06T18:29:17.627Z,101077.86
2018-11-06T18:31:46.116Z,101079.44
2018-11-06T18:34:14.679Z,101078.48
2018-11-06T18:36:43.119Z,101080.14
2018-11-06T18:39:13.351Z,101074.86
2018-11-06T18:41:41.891Z,101074.80
2018-11-06T18:44:10.484Z,101078.97
2018-11-06T18:46:38.903Z,101070.56
2018-11-06T18:49:07.923Z,101063.93
2018-11-06T18:51:36.298Z,101073.80
2018-11-06T18:54:04.946Z,101070.67
2018-11-06T18:56:33.472Z,101072.73
2018-11-06T18:59:01.883Z,101073.52
2018-11-06T19:01:30.387Z,101076.44
2018-11-06T19:03:58.799Z,101091.02
2018-11-06T19:06:27.191Z,101092.62
2018-11-06T19:08:55.603Z,101093.33
2018-11-06T19:11:23.977Z,101093.24
2018-11-06T19:13:52.377Z,101099.61
2018-11-06T19:16:20.768Z,101098.64
2018-11-06T19:18:49.183Z,101099.38
2018-11-06T19:21:18.055Z,101097.63
2018-11-06T19:23:46.477Z,101103.56
2018-11-06T19:26:14.962Z,101096.10
2018-11-06T19:28:43.364Z,101105.49
2018-11-06T19:31:11.919Z,101110.58
2018-11-06T19:33:40.315Z,101107.45
2018-11-06T19:36:08.785Z,101107.32
2018-11-06T19:38:37.186Z,101111.98
2018-11-06T19:41:06.070Z,101117.96
2018-11-06T19:43:34.470Z,101115.27
2018-11-06T19:46:02.857Z,101112.60
2018-11-06T19:48:31.411Z,101108.22
2018-11-06T19:50:59.786Z,101111.55
2018-11-06T19:53:28.225Z,101109.24
2018-11-06T19:55:56.587Z,101113.44
2018-11-06T19:58:24.995Z,101112.44
2018-11-06T20:00:53.382Z,101113.66
2018-11-06T20:03:21.801Z,101109.70
2018-11-06T20:05:50.200Z,101114.33
2018-11-06T20:08:18.611Z,101111.16
2018-11-06T20:10:47.004Z,101112.38
2018-11-06T20:13:15.422Z,101108.36
2018-11-06T20:15:43.853Z,101102.61
2018-11-06T20:18:12.214Z,101099.52
2018-11-06T20:20:40.606Z,101101.63
2018-11-06T20:23:09.001Z,101107.22
2018-11-06T20:25:37.377Z,101098.96
2018-11-06T20:28:05.799Z,101094.21
2018-11-06T20:30:34.170Z,101086.40
2018-11-06T20:33:02.647Z,101084.17
2018-11-06T20:35:31.037Z,101089.75
2018-11-06T20:37:59.556Z,101094.36
2018-11-06T20:40:28.177Z,101093.86
2018-11-06T20:42:56.747Z,101095.94
2018-11-06T20:45:25.336Z,101096.36
2018-11-06T20:47:53.762Z,101098.84
2018-11-06T20:50:23.662Z,101095.38
2018-11-06T20:52:52.140Z,101090.19
2018-11-06T20:55:20.736Z,101091.84
2018-11-06T20:57:49.143Z,101086.44
2018-11-06T21:00:30.712Z,101084.53
2018-11-06T21:03:00.493Z,101077.45
2018-11-06T21:05:28.997Z,101078.58
2018-11-06T21:07:57.389Z,101068.97
2018-11-06T21:10:27.294Z,101071.47
2018-11-06T21:12:55.726Z,101071.33
2018-11-06T21:15:24.114Z,101068.59
2018-11-06T21:17:52.518Z,101062.47
2018-11-06T21:20:20.941Z,101069.72
2018-11-06T21:22:49.470Z,101070.08
2018-11-06T21:25:18.286Z,101065.69
2018-11-06T21:27:46.638Z,101068.64
2018-11-06T21:30:17.806Z,101066.84
2018-11-06T21:32:47.499Z,101062.94
2018-11-06T21:35:15.908Z,101063.33
2018-11-06T21:37:44.550Z,101062.88
2018-11-06T21:40:15.015Z,101058.13
2018-11-06T21:42:43.989Z,101057.65
2018-11-06T21:45:13.228Z,101059.36
2018-11-06T21:47:42.483Z,101057.56
2018-11-06T21:50:12.022Z,101064.44
2018-11-06T21:52:40.674Z,101066.09
2018-11-06T21:55:10.723Z,101067.37
2018-11-06T21:57:39.145Z,101062.16
2018-11-06T22:00:09.536Z,101065.58
2018-11-06T22:02:38.193Z,101064.56
2018-11-06T22:05:07.619Z,101070.05
2018-11-06T22:07:35.994Z,101069.39
2018-11-06T22:10:05.133Z,101065.30
2018-11-06T22:12:33.570Z,101060.37
2018-11-06T22:15:02.019Z,101065.29
2018-11-06T22:17:30.392Z,101061.52
2018-11-06T22:19:58.785Z,101063.45
2018-11-06T22:22:27.221Z,101071.42
2018-11-06T22:24:55.626Z,101066.04
2018-11-06T22:27:24.068Z,101068.88
2018-11-06T22:29:52.450Z,101063.55
2018-11-06T22:32:20.826Z,101062.13
2018-11-06T22:34:49.226Z,101065.42
2018-11-06T22:37:17.602Z,101067.83
2018-11-06T22:39:46.224Z,101062.99
2018-11-06T22:42:14.624Z,101063.28
2018-11-06T22:44:43.027Z,101069.17
2018-11-06T22:47:11.398Z,101064.30
2018-11-06T22:49:39.806Z,101064.20
2018-11-06T22:52:08.219Z,101058.00
2018-11-06T22:54:36.618Z,101061.77
2018-11-06T22:57:05.003Z,101062.53
2018-11-06T22:59:33.422Z,101060.72
2018-11-06T23:02:01.819Z,101063.19
2018-11-06T23:04:30.223Z,101066.50
2018-11-06T23:06:58.708Z,101067.75
2018-11-06T23:09:26.992Z,101067.23
2018-11-06T23:11:55.391Z,101066.71
2018-11-06T23:14:23.779Z,101069.63
2018-11-06T23:16:52.187Z,101072.98
2018-11-06T23:19:20.557Z,101065.48
2018-11-06T23:21:48.965Z,101067.09
2018-11-06T23:24:17.341Z,101059.64
2018-11-06T23:26:45.737Z,101054.30
2018-11-06T23:29:14.119Z,101054.66
2018-11-06T23:31:42.551Z,101058.38
2018-11-06T23:34:10.913Z,101057.84
2018-11-06T23:36:39.307Z,101065.50
2018-11-06T23:39:08.142Z,101059.90
2018-11-06T23:41:36.681Z,101054.22
2018-11-06T23:44:05.290Z,101058.84
2018-11-06T23:46:33.700Z,101059.98
2018-11-06T23:49:02.185Z,101064.58
2018-11-06T23:51:30.589Z,101052.81
2018-11-06T23:53:58.974Z,101052.77
2018-11-06T23:56:27.456Z,101053.05
2018-11-06T23:58:55.819Z,101057.66
